Time;durP1;ratioP1;P1;durP2;ratioP2;P2;SDS_P1;SDS_P2;PMS_P1;PMS_P2;Temp;Humidity;BMP_temperature;BMP_pressure;BME280_temperature;BME280_humidity;BME280_pressure;Samples;Min_cycle;Max_cycle;Signal;HPM_P1;HPM_P2
2023/01/26 00:00:47;;;;;;;16.25;8.95;;;;;;;;;;5115544;28;20186;-59
2023/01/26 00:03:14;;;;;;;15.70;8.95;;;;;;;;;;5115316;28;20224;-60
2023/01/26 00:05:41;;;;;;;19.50;9.35;;;;;;;;;;5115586;28;20239;-59
2023/01/26 00:08:08;;;;;;;18.50;10.02;;;;;;;;;;5115493;28;20190;-59
2023/01/26 00:10:37;;;;;;;15.77;9.50;;;;;;;;;;5115440;28;20222;-58
2023/01/26 00:13:04;;;;;;;14.27;9.63;;;;;;;;;;5114747;28;20193;-58
2023/01/26 00:15:32;;;;;;;18.67;10.60;;;;;;;;;;5115192;28;20649;-59
2023/01/26 00:17:59;;;;;;;17.45;9.60;;;;;;;;;;5115381;28;20197;-59
2023/01/26 00:20:26;;;;;;;17.35;9.63;;;;;;;;;;5115303;28;20190;-58
2023/01/26 00:22:53;;;;;;;16.08;9.27;;;;;;;;;;5115177;28;20218;-59
2023/01/26 00:25:20;;;;;;;16.58;9.50;;;;;;;;;;5115034;28;20230;-59
2023/01/26 00:27:48;;;;;;;21.13;10.45;;;;;;;;;;5114978;28;20285;-59
2023/01/26 00:30:16;;;;;;;15.50;8.98;;;;;;;;;;5114833;28;20191;-59
2023/01/26 00:32:43;;;;;;;17.15;10.60;;;;;;;;;;5115116;28;20195;-60
2023/01/26 00:35:10;;;;;;;20.05;11.20;;;;;;;;;;5114995;28;20186;-59
2023/01/26 00:37:37;;;;;;;14.95;9.57;;;;;;;;;;5114894;28;20192;-58
2023/01/26 00:40:04;;;;;;;12.85;8.75;;;;;;;;;;5114869;28;20640;-59
2023/01/26 00:42:31;;;;;;;14.70;9.55;;;;;;;;;;5114583;28;20217;-59
2023/01/26 00:44:59;;;;;;;15.45;9.13;;;;;;;;;;5114628;28;20236;-57
2023/01/26 00:47:26;;;;;;;15.40;9.10;;;;;;;;;;5114795;28;20664;-59
2023/01/26 00:49:53;;;;;;;14.32;9.38;;;;;;;;;;5114670;28;20193;-59
2023/01/26 00:52:20;;;;;;;15.50;9.88;;;;;;;;;;5114578;28;20196;-59
2023/01/26 00:54:47;;;;;;;17.10;9.38;;;;;;;;;;5114422;28;20599;-59
2023/01/26 00:57:14;;;;;;;16.40;9.48;;;;;;;;;;5114344;28;20189;-58
2023/01/26 00:59:41;;;;;;;14.63;8.90;;;;;;;;;;5114602;28;20233;-59
2023/01/26 01:02:09;;;;;;;15.25;9.70;;;;;;;;;;5114390;28;20537;-58
2023/01/26 01:04:36;;;;;;;14.27;8.77;;;;;;;;;;5114417;28;20189;-58
2023/01/26 01:07:03;;;;;;;13.43;8.13;;;;;;;;;;5114346;28;20230;-57
2023/01/26 01:09:30;;;;;;;12.68;8.23;;;;;;;;;;5114222;28;20195;-59
2023/01/26 01:11:56;;;;;;;14.07;9.80;;;;;;;;;;5114062;28;20194;-58
2023/01/26 01:14:23;;;;;;;12.00;7.75;;;;;;;;;;5114266;28;20198;-60
2023/01/26 01:16:50;;;;;;;11.90;8.55;;;;;;;;;;5114159;28;20190;-59
2023/01/26 01:19:19;;;;;;;10.85;7.63;;;;;;;;;;5114146;28;20280;-59
2023/01/26 01:21:46;;;;;;;11.93;7.15;;;;;;;;;;5113965;28;20281;-59
2023/01/26 01:24:13;;;;;;;12.52;7.93;;;;;;;;;;5113011;28;20584;-59
2023/01/26 01:26:40;;;;;;;12.43;7.97;;;;;;;;;;5113912;28;20564;-59
2023/01/26 01:29:08;;;;;;;10.45;7.40;;;;;;;;;;5113775;28;20652;-59
2023/01/26 01:31:35;;;;;;;11.20;7.10;;;;;;;;;;5113857;28;20195;-59
2023/01/26 01:34:02;;;;;;;10.45;8.13;;;;;;;;;;5113787;28;20194;-59
2023/01/26 01:36:30;;;;;;;14.30;8.43;;;;;;;;;;5113751;28;20400;-59
2023/01/26 01:38:57;;;;;;;11.20;8.13;;;;;;;;;;5113609;28;20281;-58
2023/01/26 01:41:24;;;;;;;12.27;8.77;;;;;;;;;;5113844;28;20276;-59
2023/01/26 01:43:51;;;;;;;13.07;8.25;;;;;;;;;;5113659;28;20593;-59
2023/01/26 01:46:22;;;;;;;11.50;8.52;;;;;;;;;;5113476;28;20228;-59
2023/01/26 01:48:51;;;;;;;12.45;7.90;;;;;;;;;;5113666;28;20200;-59
2023/01/26 01:51:21;;;;;;;13.23;8.57;;;;;;;;;;5113412;28;20190;-59
2023/01/26 01:53:51;;;;;;;13.27;7.68;;;;;;;;;;5113669;28;20216;-59
2023/01/26 01:56:21;;;;;;;13.60;8.63;;;;;;;;;;5113579;28;20189;-59
2023/01/26 01:58:49;;;;;;;10.43;7.00;;;;;;;;;;5113540;28;20237;-59
2023/01/26 02:01:16;;;;;;;12.18;7.68;;;;;;;;;;5113438;28;20189;-59
2023/01/26 02:03:44;;;;;;;12.95;8.00;;;;;;;;;;5113249;28;20217;-60
2023/01/26 02:06:13;;;;;;;14.70;8.50;;;;;;;;;;5113233;28;20657;-59
2023/01/26 02:08:41;;;;;;;12.23;8.98;;;;;;;;;;5113296;28;20728;-59
2023/01/26 02:11:11;;;;;;;14.20;8.57;;;;;;;;;;5113403;28;20653;-59
2023/01/26 02:13:38;;;;;;;12.43;8.52;;;;;;;;;;5113284;28;20190;-60
2023/01/26 02:16:05;;;;;;;11.30;8.30;;;;;;;;;;5113278;28;20371;-59
2023/01/26 02:18:33;;;;;;;10.75;7.95;;;;;;;;;;5113200;28;20593;-59
2023/01/26 02:21:01;;;;;;;13.80;8.15;;;;;;;;;;5113337;28;20222;-59
2023/01/26 02:23:35;;;;;;;11.98;8.20;;;;;;;;;;5113192;28;20228;-59
2023/01/26 02:26:07;;;;;;;10.90;8.27;;;;;;;;;;5113250;28;20196;-59
2023/01/26 02:28:34;;;;;;;13.18;8.15;;;;;;;;;;5113285;28;20191;-59
2023/01/26 02:31:01;;;;;;;11.73;8.30;;;;;;;;;;5113026;28;20199;-60
2023/01/26 02:33:29;;;;;;;10.65;8.32;;;;;;;;;;5113260;28;20280;-59
2023/01/26 02:35:56;;;;;;;15.48;8.73;;;;;;;;;;5115193;28;20276;-59
2023/01/26 02:38:25;;;;;;;15.30;9.70;;;;;;;;;;5117208;28;20190;-59
2023/01/26 02:40:54;;;;;;;16.98;10.10;;;;;;;;;;5117138;28;20186;-59
2023/01/26 02:43:23;;;;;;;16.83;10.68;;;;;;;;;;5116896;28;20218;-60
2023/01/26 02:45:50;;;;;;;21.55;12.93;;;;;;;;;;5116881;28;20221;-59
2023/01/26 02:49:45;;;;;;;17.15;10.90;;;;;;;;;;5117062;28;20282;-59
2023/01/26 02:51:04;;;;;;;19.52;11.23;;;;;;;;;;5116752;28;20240;-58
2023/01/26 02:53:31;;;;;;;17.15;9.32;;;;;;;;;;5116761;28;20663;-58
2023/01/26 02:55:57;;;;;;;17.05;10.57;;;;;;;;;;5116742;28;20224;-59
2023/01/26 02:58:26;;;;;;;15.18;9.65;;;;;;;;;;5116995;28;20244;-59
2023/01/26 03:00:53;;;;;;;11.25;8.45;;;;;;;;;;5116852;28;20193;-58
2023/01/26 03:03:21;;;;;;;14.05;9.90;;;;;;;;;;5116600;28;20222;-58
2023/01/26 03:05:48;;;;;;;15.05;9.48;;;;;;;;;;5116505;28;20580;-58
2023/01/26 03:08:15;;;;;;;13.50;9.23;;;;;;;;;;5116799;28;20706;-58
2023/01/26 03:10:42;;;;;;;15.40;9.27;;;;;;;;;;5116521;28;20571;-59
2023/01/26 03:13:09;;;;;;;12.98;9.15;;;;;;;;;;5116619;28;20227;-59
2023/01/26 03:15:51;;;;;;;14.00;9.10;;;;;;;;;;5116684;28;20345;-59
2023/01/26 03:29:19;;;;;;;13.60;8.30;;;;;;;;;;5116311;28;20206;-60
2023/01/26 03:31:47;;;;;;;11.68;7.90;;;;;;;;;;5116297;28;20198;-59
2023/01/26 03:34:14;;;;;;;12.27;8.68;;;;;;;;;;5116167;28;20190;-59
2023/01/26 03:36:41;;;;;;;11.48;8.27;;;;;;;;;;5116247;28;20198;-59
2023/01/26 03:39:08;;;;;;;10.60;7.28;;;;;;;;;;5116055;28;20193;-58
2023/01/26 03:58:04;;;;;;;13.85;8.70;;;;;;;;;;5115653;28;20209;-59
2023/01/26 04:00:31;;;;;;;14.20;10.90;;;;;;;;;;5115584;28;20289;-59
2023/01/26 04:08:29;;;;;;;23.73;11.07;;;;;;;;;;5115521;28;20573;-58
2023/01/26 04:10:56;;;;;;;20.27;11.35;;;;;;;;;;5115288;28;20213;-59
2023/01/26 04:21:39;;;;;;;17.38;10.23;;;;;;;;;;5115235;28;20327;-58
2023/01/26 04:24:08;;;;;;;13.43;9.60;;;;;;;;;;5115205;28;20222;-59
2023/01/26 04:26:35;;;;;;;15.43;10.75;;;;;;;;;;5115176;28;20273;-59
2023/01/26 04:29:03;;;;;;;16.13;10.52;;;;;;;;;;5115321;28;20189;-59
2023/01/26 04:31:30;;;;;;;21.48;11.50;;;;;;;;;;5114989;28;20186;-58
2023/01/26 04:33:58;;;;;;;18.67;12.02;;;;;;;;;;5115339;28;20371;-59
2023/01/26 04:36:25;;;;;;;16.45;11.38;;;;;;;;;;5115047;28;20281;-58
2023/01/26 04:38:52;;;;;;;22.23;13.38;;;;;;;;;;5114957;28;20189;-59
2023/01/26 04:41:19;;;;;;;17.65;11.18;;;;;;;;;;5114827;28;20280;-58
2023/01/26 04:43:46;;;;;;;13.88;10.05;;;;;;;;;;5114542;28;20210;-59
2023/01/26 04:46:13;;;;;;;13.68;10.43;;;;;;;;;;5114418;28;20700;-59
2023/01/26 04:48:41;;;;;;;15.75;10.00;;;;;;;;;;5114514;28;20675;-59
2023/01/26 04:51:12;;;;;;;18.05;11.10;;;;;;;;;;5114641;28;20186;-58
2023/01/26 04:53:39;;;;;;;14.55;9.07;;;;;;;;;;5114699;28;20218;-59
2023/01/26 04:56:07;;;;;;;13.95;10.60;;;;;;;;;;5114552;28;20281;-58
2023/01/26 04:58:34;;;;;;;18.30;11.40;;;;;;;;;;5114311;28;20236;-59
2023/01/26 05:01:01;;;;;;;17.25;11.05;;;;;;;;;;5114305;28;20680;-59
2023/01/26 05:03:28;;;;;;;17.63;10.90;;;;;;;;;;5114358;28;20315;-59
2023/01/26 05:05:55;;;;;;;13.48;10.15;;;;;;;;;;5114405;28;20194;-58
2023/01/26 05:08:24;;;;;;;23.75;12.27;;;;;;;;;;5114307;28;20556;-58
2023/01/26 05:10:51;;;;;;;16.17;10.63;;;;;;;;;;5114221;28;20203;-59
2023/01/26 05:13:18;;;;;;;15.35;9.15;;;;;;;;;;5114097;28;20242;-59
2023/01/26 05:15:45;;;;;;;16.02;10.73;;;;;;;;;;5114005;28;20192;-59
2023/01/26 05:18:12;;;;;;;16.52;10.93;;;;;;;;;;5114170;28;20266;-59
2023/01/26 05:20:39;;;;;;;17.20;10.80;;;;;;;;;;5114138;28;20197;-58
2023/01/26 05:23:06;;;;;;;17.98;11.05;;;;;;;;;;5113825;28;20384;-59
2023/01/26 05:25:34;;;;;;;19.70;11.70;;;;;;;;;;5113739;28;20221;-59
2023/01/26 05:28:01;;;;;;;18.08;10.95;;;;;;;;;;5113628;28;20296;-59
2023/01/26 05:30:28;;;;;;;16.27;10.63;;;;;;;;;;5113912;28;20195;-57
2023/01/26 05:33:00;;;;;;;16.55;10.20;;;;;;;;;;5113756;28;20221;-58
2023/01/26 05:35:27;;;;;;;11.20;9.10;;;;;;;;;;5113736;28;20239;-59
2023/01/26 05:37:55;;;;;;;13.85;10.35;;;;;;;;;;5113747;28;20568;-59
2023/01/26 05:40:22;;;;;;;13.98;9.95;;;;;;;;;;5113493;28;20193;-59
2023/01/26 05:42:50;;;;;;;16.63;10.13;;;;;;;;;;5113568;28;20277;-58
2023/01/26 05:45:17;;;;;;;17.70;10.48;;;;;;;;;;5113373;28;20235;-59
2023/01/26 05:47:44;;;;;;;15.57;10.30;;;;;;;;;;5113874;28;20296;-58
2023/01/26 05:50:12;;;;;;;19.20;10.88;;;;;;;;;;5113526;28;20553;-57
2023/01/26 05:52:38;;;;;;;17.70;10.25;;;;;;;;;;5113422;28;20190;-58
2023/01/26 05:55:06;;;;;;;15.55;8.48;;;;;;;;;;5113425;28;20192;-57
2023/01/26 05:57:33;;;;;;;11.75;8.90;;;;;;;;;;5113567;28;20190;-60
2023/01/26 06:00:01;;;;;;;10.63;8.13;;;;;;;;;;5113471;28;20277;-58
2023/01/26 06:02:28;;;;;;;13.35;9.98;;;;;;;;;;5113420;28;20285;-58
2023/01/26 06:04:55;;;;;;;12.63;9.18;;;;;;;;;;5113178;28;20213;-57
2023/01/26 06:07:22;;;;;;;18.63;10.43;;;;;;;;;;5113288;28;20594;-58
2023/01/26 06:09:49;;;;;;;17.55;10.73;;;;;;;;;;5112475;28;20196;-58
2023/01/26 06:12:17;;;;;;;14.70;10.70;;;;;;;;;;5113219;28;20276;-58
2023/01/26 06:14:44;;;;;;;22.40;11.50;;;;;;;;;;5113265;28;20280;-58
2023/01/26 06:17:12;;;;;;;18.23;10.40;;;;;;;;;;5113004;28;20200;-58
2023/01/26 06:19:39;;;;;;;18.25;10.77;;;;;;;;;;5113093;28;20598;-59
2023/01/26 06:22:08;;;;;;;16.77;9.82;;;;;;;;;;5112959;28;20204;-59
2023/01/26 06:24:35;;;;;;;15.90;10.40;;;;;;;;;;5112738;28;20214;-58
2023/01/26 06:27:02;;;;;;;16.67;10.80;;;;;;;;;;5113014;28;20275;-59
2023/01/26 06:29:29;;;;;;;17.90;9.57;;;;;;;;;;5112954;28;20197;-58
2023/01/26 06:31:56;;;;;;;17.88;10.45;;;;;;;;;;5112871;28;20238;-58
2023/01/26 06:34:24;;;;;;;12.63;9.25;;;;;;;;;;5112927;28;20195;-56
2023/01/26 06:36:51;;;;;;;17.65;11.35;;;;;;;;;;5112881;28;20293;-58
2023/01/26 06:39:18;;;;;;;13.88;10.05;;;;;;;;;;5113197;28;20226;-57
2023/01/26 06:41:45;;;;;;;15.57;10.10;;;;;;;;;;5113005;28;20197;-58
2023/01/26 06:44:12;;;;;;;19.23;13.13;;;;;;;;;;5112862;28;20579;-58
2023/01/26 06:46:39;;;;;;;20.88;11.40;;;;;;;;;;5112624;28;20317;-57
2023/01/26 06:49:06;;;;;;;18.27;10.20;;;;;;;;;;5112839;28;20553;-58
2023/01/26 06:51:44;;;;;;;20.08;11.32;;;;;;;;;;5112714;28;20204;-58
2023/01/26 06:54:12;;;;;;;15.95;9.75;;;;;;;;;;5113073;28;20193;-57
2023/01/26 06:56:39;;;;;;;12.63;8.52;;;;;;;;;;5112822;28;20187;-57
2023/01/26 06:59:06;;;;;;;15.43;10.38;;;;;;;;;;5112807;28;20198;-57
2023/01/26 07:01:34;;;;;;;14.32;9.30;;;;;;;;;;5112731;28;20306;-57
2023/01/26 07:04:01;;;;;;;15.95;10.00;;;;;;;;;;5112420;28;20219;-58
2023/01/26 07:06:28;;;;;;;16.05;10.80;;;;;;;;;;5112629;28;20190;-57
2023/01/26 07:08:56;;;;;;;18.15;11.25;;;;;;;;;;5112766;28;20186;-57
2023/01/26 07:11:24;;;;;;;16.27;11.02;;;;;;;;;;5112598;28;20556;-57
2023/01/26 07:13:51;;;;;;;15.52;10.70;;;;;;;;;;5112573;28;20285;-57
2023/01/26 07:16:18;;;;;;;17.55;10.25;;;;;;;;;;5112583;28;20191;-57
2023/01/26 07:18:45;;;;;;;15.85;11.00;;;;;;;;;;5112799;28;20201;-57
2023/01/26 07:21:13;;;;;;;12.85;9.45;;;;;;;;;;5112646;28;20200;-57
2023/01/26 07:23:40;;;;;;;14.77;9.15;;;;;;;;;;5115526;28;20578;-58
2023/01/26 07:26:08;;;;;;;15.93;10.00;;;;;;;;;;5116211;28;20221;-57
2023/01/26 07:28:35;;;;;;;14.45;10.48;;;;;;;;;;5116161;28;20189;-57
2023/01/26 07:31:03;;;;;;;15.75;9.52;;;;;;;;;;5116008;28;20561;-57
2023/01/26 07:33:30;;;;;;;15.15;10.02;;;;;;;;;;5116171;28;20194;-57
2023/01/26 07:35:57;;;;;;;13.75;9.63;;;;;;;;;;5116129;28;20594;-57
2023/01/26 07:38:25;;;;;;;14.32;9.57;;;;;;;;;;5116027;28;20281;-57
2023/01/26 07:40:52;;;;;;;15.75;10.50;;;;;;;;;;5115933;28;20200;-57
2023/01/26 07:43:20;;;;;;;14.60;9.73;;;;;;;;;;5116300;28;20224;-58
2023/01/26 07:45:50;;;;;;;10.13;7.20;;;;;;;;;;5115485;28;20718;-57
2023/01/26 07:48:17;;;;;;;15.00;8.85;;;;;;;;;;5115693;28;20185;-58
2023/01/26 07:50:46;;;;;;;14.40;8.40;;;;;;;;;;5115567;28;20192;-57
2023/01/26 07:53:14;;;;;;;11.60;8.18;;;;;;;;;;5115428;28;20196;-58
2023/01/26 07:55:42;;;;;;;13.55;9.00;;;;;;;;;;5115554;28;20219;-58
2023/01/26 07:58:09;;;;;;;14.80;9.25;;;;;;;;;;5115445;28;20221;-57
2023/01/26 08:00:38;;;;;;;13.10;8.95;;;;;;;;;;5115492;28;20603;-58
2023/01/26 08:03:05;;;;;;;17.13;9.90;;;;;;;;;;5115379;28;20186;-57
2023/01/26 08:05:34;;;;;;;12.75;9.35;;;;;;;;;;5115272;28;20655;-58
2023/01/26 08:08:01;;;;;;;13.60;8.98;;;;;;;;;;5115426;28;20195;-58
2023/01/26 08:10:30;;;;;;;13.80;9.82;;;;;;;;;;5115314;28;20286;-58
2023/01/26 08:12:57;;;;;;;18.60;11.40;;;;;;;;;;5115473;28;20191;-57
2023/01/26 08:15:24;;;;;;;14.77;10.73;;;;;;;;;;5115301;28;20195;-57
2023/01/26 08:17:53;;;;;;;12.98;9.00;;;;;;;;;;5115167;28;20191;-58
2023/01/26 08:20:20;;;;;;;13.98;10.15;;;;;;;;;;5115077;28;20193;-58
2023/01/26 08:22:47;;;;;;;14.77;9.82;;;;;;;;;;5114991;28;20536;-57
2023/01/26 08:25:14;;;;;;;9.95;7.93;;;;;;;;;;5114688;28;20216;-57
2023/01/26 08:27:41;;;;;;;9.45;7.15;;;;;;;;;;5114125;28;20277;-58
2023/01/26 08:30:08;;;;;;;14.00;7.65;;;;;;;;;;5115030;28;20556;-58
2023/01/26 08:32:35;;;;;;;10.07;7.75;;;;;;;;;;5114056;28;20208;-58
2023/01/26 08:35:04;;;;;;;14.85;9.00;;;;;;;;;;5114424;28;20375;-59
2023/01/26 08:37:31;;;;;;;11.00;8.02;;;;;;;;;;5114362;28;20192;-60
2023/01/26 08:39:58;;;;;;;10.00;8.50;;;;;;;;;;5114543;28;20198;-59
2023/01/26 08:42:25;;;;;;;13.48;8.25;;;;;;;;;;5114679;28;20187;-59
2023/01/26 08:44:52;;;;;;;14.95;11.02;;;;;;;;;;5114243;28;20308;-59
2023/01/26 08:47:19;;;;;;;14.32;9.55;;;;;;;;;;5114572;28;20195;-59
2023/01/26 08:49:46;;;;;;;13.15;9.07;;;;;;;;;;5113918;28;20226;-61
2023/01/26 08:52:15;;;;;;;25.40;14.82;;;;;;;;;;5114304;28;20282;-59
2023/01/26 08:54:42;;;;;;;21.13;11.95;;;;;;;;;;5114413;28;20220;-61
2023/01/26 08:57:09;;;;;;;14.77;9.20;;;;;;;;;;5114563;28;20193;-60
2023/01/26 08:59:37;;;;;;;15.27;10.88;;;;;;;;;;5114336;28;20527;-61
2023/01/26 09:02:04;;;;;;;12.70;8.65;;;;;;;;;;5114254;28;20190;-60
2023/01/26 09:04:31;;;;;;;14.35;9.20;;;;;;;;;;5114112;28;20280;-60
2023/01/26 09:06:58;;;;;;;11.77;8.95;;;;;;;;;;5114040;28;20212;-62
2023/01/26 09:09:27;;;;;;;17.80;8.77;;;;;;;;;;5114295;28;20189;-60
2023/01/26 09:11:55;;;;;;;15.98;9.77;;;;;;;;;;5114176;28;20239;-61
2023/01/26 09:14:22;;;;;;;11.95;8.88;;;;;;;;;;5114062;28;20196;-62
2023/01/26 09:16:49;;;;;;;14.38;10.35;;;;;;;;;;5113721;28;20194;-62
2023/01/26 09:19:16;;;;;;;15.32;9.95;;;;;;;;;;5113806;28;20200;-62
2023/01/26 09:21:43;;;;;;;15.38;9.80;;;;;;;;;;5114098;28;20196;-62
2023/01/26 09:24:10;;;;;;;15.32;9.07;;;;;;;;;;5113864;28;20220;-59
2023/01/26 09:26:38;;;;;;;15.80;8.90;;;;;;;;;;5114025;28;20218;-59
2023/01/26 09:29:05;;;;;;;14.65;9.40;;;;;;;;;;5113851;28;20224;-61
2023/01/26 09:31:32;;;;;;;15.32;10.02;;;;;;;;;;5113675;28;20672;-61
2023/01/26 09:33:59;;;;;;;15.77;10.73;;;;;;;;;;5113379;28;20205;-59
2023/01/26 09:36:26;;;;;;;18.80;11.15;;;;;;;;;;5113649;28;20203;-58
2023/01/26 09:38:53;;;;;;;18.52;11.23;;;;;;;;;;5113208;28;20281;-61
2023/01/26 09:41:30;;;;;;;17.13;11.55;;;;;;;;;;5113561;28;20556;-59
2023/01/26 09:44:00;;;;;;;15.88;10.27;;;;;;;;;;5113379;28;20228;-58
2023/01/26 09:46:30;;;;;;;18.60;11.00;;;;;;;;;;5112583;28;20592;-62
2023/01/26 09:49:00;;;;;;;17.88;11.32;;;;;;;;;;5113567;28;20196;-61
2023/01/26 09:51:33;;;;;;;19.08;11.45;;;;;;;;;;5113658;28;20281;-58
2023/01/26 09:54:01;;;;;;;17.48;11.55;;;;;;;;;;5113407;28;20189;-60
2023/01/26 09:56:29;;;;;;;18.73;10.80;;;;;;;;;;5113475;28;20190;-60
2023/01/26 09:58:58;;;;;;;16.10;10.70;;;;;;;;;;5113273;28;20670;-60
2023/01/26 10:01:29;;;;;;;30.10;13.57;;;;;;;;;;5113551;28;20189;-56
2023/01/26 10:04:01;;;;;;;17.10;10.50;;;;;;;;;;5113307;28;20192;-59
2023/01/26 10:06:30;;;;;;;19.60;12.43;;;;;;;;;;5113296;28;20259;-57
2023/01/26 10:08:58;;;;;;;18.05;11.23;;;;;;;;;;5113130;28;20225;-61
2023/01/26 10:11:27;;;;;;;14.10;10.02;;;;;;;;;;5113232;28;20201;-59
2023/01/26 10:13:55;;;;;;;15.75;10.40;;;;;;;;;;5113155;28;20193;-52
2023/01/26 10:16:24;;;;;;;19.05;11.20;;;;;;;;;;5113226;28;20280;-58
2023/01/26 10:18:53;;;;;;;17.08;10.60;;;;;;;;;;5113287;28;20555;-58
2023/01/26 10:21:22;;;;;;;16.17;10.55;;;;;;;;;;5113205;28;20535;-60
2023/01/26 10:23:50;;;;;;;18.15;11.52;;;;;;;;;;5113088;28;20551;-62
2023/01/26 10:26:17;;;;;;;22.70;12.45;;;;;;;;;;5112440;28;20274;-59
2023/01/26 10:28:45;;;;;;;16.23;11.55;;;;;;;;;;5113284;28;20559;-60
2023/01/26 10:31:14;;;;;;;17.75;11.52;;;;;;;;;;5113311;28;20197;-60
2023/01/26 10:33:42;;;;;;;19.02;12.05;;;;;;;;;;5113082;28;20284;-60
2023/01/26 10:36:13;;;;;;;17.58;12.27;;;;;;;;;;5112922;28;20189;-59
2023/01/26 10:38:43;;;;;;;18.98;12.88;;;;;;;;;;5112987;28;20194;-59
2023/01/26 10:41:24;;;;;;;15.13;10.93;;;;;;;;;;5113143;28;20184;-59
2023/01/26 10:43:52;;;;;;;17.20;12.75;;;;;;;;;;5112687;28;20275;-59
2023/01/26 10:46:24;;;;;;;18.25;12.50;;;;;;;;;;5112709;28;20225;-60
2023/01/26 10:48:52;;;;;;;20.17;10.77;;;;;;;;;;5112821;28;20198;-60
2023/01/26 10:51:23;;;;;;;20.38;12.23;;;;;;;;;;5112978;28;20200;-59
2023/01/26 10:53:50;;;;;;;19.27;11.98;;;;;;;;;;5112627;28;20220;-57
2023/01/26 10:56:19;;;;;;;13.43;10.98;;;;;;;;;;5113832;28;20326;-58
2023/01/26 10:58:48;;;;;;;21.55;13.00;;;;;;;;;;5116737;28;20238;-60
2023/01/26 11:01:17;;;;;;;18.10;12.05;;;;;;;;;;5116468;28;20656;-59
2023/01/26 11:03:59;;;;;;;16.55;11.13;;;;;;;;;;5116813;28;20243;-60
2023/01/26 11:06:29;;;;;;;19.15;12.95;;;;;;;;;;5116644;28;20223;-61
2023/01/26 11:09:08;;;;;;;15.90;10.60;;;;;;;;;;5116534;28;20185;-62
2023/01/26 11:11:35;;;;;;;17.02;12.30;;;;;;;;;;5116686;28;20200;-56
2023/01/26 11:14:12;;;;;;;15.95;11.32;;;;;;;;;;5116224;28;20210;-56
2023/01/26 11:16:40;;;;;;;21.25;13.68;;;;;;;;;;5116381;28;20709;-61
2023/01/26 11:19:11;;;;;;;15.65;11.65;;;;;;;;;;5116368;28;20190;-63
2023/01/26 11:21:41;;;;;;;17.45;12.05;;;;;;;;;;5116274;28;20193;-59
2023/01/26 11:24:11;;;;;;;19.38;11.23;;;;;;;;;;5116137;28;20215;-60
2023/01/26 11:26:57;;;;;;;16.40;12.52;;;;;;;;;;5116188;28;20246;-59
2023/01/26 11:29:36;;;;;;;14.70;11.60;;;;;;;;;;5116102;28;20788;-59
2023/01/26 11:32:06;;;;;;;17.02;11.98;;;;;;;;;;5116183;28;20407;-59
2023/01/26 11:34:38;;;;;;;12.73;10.82;;;;;;;;;;5115773;28;20447;-59
2023/01/26 11:37:12;;;;;;;15.30;11.20;;;;;;;;;;5116085;28;20623;-59
2023/01/26 11:39:43;;;;;;;14.95;12.20;;;;;;;;;;5116021;28;20488;-56
2023/01/26 11:42:17;;;;;;;18.20;14.02;;;;;;;;;;5116168;28;20657;-61
2023/01/26 11:44:50;;;;;;;17.98;11.70;;;;;;;;;;5115563;28;20225;-61
2023/01/26 11:47:21;;;;;;;19.33;11.02;;;;;;;;;;5115379;28;20248;-60
2023/01/26 11:49:56;;;;;;;13.63;10.70;;;;;;;;;;5115930;28;20280;-60
2023/01/26 11:52:29;;;;;;;15.27;11.65;;;;;;;;;;5114892;28;20309;-59
2023/01/26 11:55:03;;;;;;;13.52;10.25;;;;;;;;;;5135930;27;20197;-61
2023/01/26 11:57:33;;;;;;;14.70;11.32;;;;;;;;;;5127406;27;20300;-59
2023/01/26 12:00:02;;;;;;;14.18;11.65;;;;;;;;;;5115302;28;20186;-60
2023/01/26 12:02:31;;;;;;;11.70;10.35;;;;;;;;;;5115462;28;20186;-60
2023/01/26 12:05:02;;;;;;;13.63;10.88;;;;;;;;;;5115215;28;20617;-59
2023/01/26 12:07:31;;;;;;;14.43;11.10;;;;;;;;;;5114684;28;20198;-56
2023/01/26 12:09:59;;;;;;;13.50;11.55;;;;;;;;;;5125158;27;20445;-53
2023/01/26 12:12:30;;;;;;;13.60;10.00;;;;;;;;;;5135636;27;20454;-55
2023/01/26 12:15:00;;;;;;;15.02;11.32;;;;;;;;;;5135849;27;20190;-54
2023/01/26 12:17:39;;;;;;;13.90;10.68;;;;;;;;;;5135869;27;20568;-57
2023/01/26 12:20:14;;;;;;;12.43;10.50;;;;;;;;;;5135818;27;20189;-57
2023/01/26 12:22:45;;;;;;;12.35;9.65;;;;;;;;;;5135651;27;20282;-60
2023/01/26 12:25:23;;;;;;;13.85;9.88;;;;;;;;;;5135761;27;20197;-60
2023/01/26 12:27:54;;;;;;;10.88;9.18;;;;;;;;;;5135610;27;20213;-59
2023/01/26 12:30:34;;;;;;;16.33;10.65;;;;;;;;;;5135521;27;20250;-60
2023/01/26 12:33:02;;;;;;;14.27;11.13;;;;;;;;;;5135526;27;20193;-60
2023/01/26 12:35:36;;;;;;;13.10;9.95;;;;;;;;;;5135556;27;20209;-60
2023/01/26 12:38:09;;;;;;;17.00;12.68;;;;;;;;;;5134682;27;20536;-60
2023/01/26 12:40:39;;;;;;;14.15;12.65;;;;;;;;;;5134475;27;20482;-59
2023/01/26 12:43:14;;;;;;;12.68;11.38;;;;;;;;;;5135156;27;20193;-60
2023/01/26 12:45:42;;;;;;;15.98;11.73;;;;;;;;;;5135002;27;20260;-59
2023/01/26 12:48:13;;;;;;;14.75;11.95;;;;;;;;;;5135242;27;20548;-60
2023/01/26 12:50:44;;;;;;;14.43;11.43;;;;;;;;;;5135092;27;20199;-59
2023/01/26 12:53:14;;;;;;;12.10;9.43;;;;;;;;;;5135058;27;20200;-59
2023/01/26 12:55:43;;;;;;;14.63;11.50;;;;;;;;;;5134572;27;20189;-60
2023/01/26 12:58:12;;;;;;;12.70;10.15;;;;;;;;;;5134728;27;20190;-60
2023/01/26 13:00:39;;;;;;;15.55;9.82;;;;;;;;;;5135094;27;20195;-60
2023/01/26 13:03:14;;;;;;;10.85;9.45;;;;;;;;;;5134816;27;20630;-59
2023/01/26 13:05:55;;;;;;;14.35;9.43;;;;;;;;;;5134561;27;20280;-61
2023/01/26 13:08:50;;;;;;;13.60;10.70;;;;;;;;;;5134624;27;20235;-56
2023/01/26 13:11:41;;;;;;;13.27;9.07;;;;;;;;;;5134835;27;20202;-60
2023/01/26 13:14:24;;;;;;;16.63;9.20;;;;;;;;;;5134554;27;20279;-61
2023/01/26 13:16:51;;;;;;;19.15;9.70;;;;;;;;;;5134514;27;20241;-61
2023/01/26 13:19:33;;;;;;;12.18;10.25;;;;;;;;;;5134638;27;20276;-60
2023/01/26 13:22:00;;;;;;;11.10;9.98;;;;;;;;;;5134599;27;20567;-59
2023/01/26 13:24:43;;;;;;;14.25;10.65;;;;;;;;;;5133999;27;20616;-61
2023/01/26 13:27:30;;;;;;;11.85;9.25;;;;;;;;;;5134287;27;20213;-63
2023/01/26 13:29:57;;;;;;;13.70;10.23;;;;;;;;;;5133737;27;20199;-69
2023/01/26 13:32:54;;;;;;;13.27;11.05;;;;;;;;;;5134458;27;20560;-62
2023/01/26 13:35:22;;;;;;;16.48;11.02;;;;;;;;;;5134114;27;20271;-68
2023/01/26 13:37:50;;;;;;;16.23;12.30;;;;;;;;;;5133993;27;20200;-63
2023/01/26 13:40:21;;;;;;;17.20;12.65;;;;;;;;;;5134288;27;20196;-65
2023/01/26 13:42:52;;;;;;;16.23;12.43;;;;;;;;;;5134106;27;20280;-62
2023/01/26 13:45:22;;;;;;;14.65;11.93;;;;;;;;;;5134024;27;20227;-61
2023/01/26 13:47:52;;;;;;;15.43;12.00;;;;;;;;;;5133932;27;20235;-59
2023/01/26 13:50:23;;;;;;;15.88;12.32;;;;;;;;;;5133870;27;20229;-59
2023/01/26 13:52:51;;;;;;;18.25;13.50;;;;;;;;;;5128926;27;20188;-59
2023/01/26 13:55:23;;;;;;;16.63;13.20;;;;;;;;;;5113201;28;20673;-58
2023/01/26 13:57:50;;;;;;;18.42;12.32;;;;;;;;;;5113563;28;20288;-59
2023/01/26 14:00:18;;;;;;;16.98;13.15;;;;;;;;;;5113194;28;20189;-64
2023/01/26 14:02:49;;;;;;;20.77;14.93;;;;;;;;;;5112917;28;20277;-61
2023/01/26 14:05:22;;;;;;;21.60;15.27;;;;;;;;;;5113259;28;20186;-57
2023/01/26 14:07:50;;;;;;;26.40;19.85;;;;;;;;;;5113016;28;20554;-56
2023/01/26 14:10:18;;;;;;;22.58;14.20;;;;;;;;;;5112277;28;20275;-57
2023/01/26 14:12:50;;;;;;;20.50;13.88;;;;;;;;;;5112718;28;20279;-57
2023/01/26 14:15:22;;;;;;;22.15;14.95;;;;;;;;;;5112944;28;20270;-56
2023/01/26 14:17:51;;;;;;;20.33;14.40;;;;;;;;;;5112810;28;20190;-57
2023/01/26 14:20:19;;;;;;;20.08;14.30;;;;;;;;;;5113074;28;20193;-56
2023/01/26 14:22:47;;;;;;;22.80;16.45;;;;;;;;;;5113036;28;20599;-56
2023/01/26 14:25:20;;;;;;;20.13;15.45;;;;;;;;;;5112961;28;20217;-57
2023/01/26 14:27:50;;;;;;;21.55;15.65;;;;;;;;;;5112817;28;20256;-55
2023/01/26 14:30:26;;;;;;;20.55;14.50;;;;;;;;;;5113502;28;20190;-57
2023/01/26 14:32:59;;;;;;;17.45;13.02;;;;;;;;;;5116961;28;20586;-57
2023/01/26 14:35:27;;;;;;;17.02;12.63;;;;;;;;;;5117081;28;20539;-56
2023/01/26 14:38:05;;;;;;;15.85;13.23;;;;;;;;;;5117296;28;20235;-57
2023/01/26 14:40:32;;;;;;;17.90;13.65;;;;;;;;;;5117297;28;20201;-55
2023/01/26 14:43:00;;;;;;;19.38;13.02;;;;;;;;;;5117121;28;20190;-57
2023/01/26 14:45:29;;;;;;;17.38;13.60;;;;;;;;;;5116699;28;20222;-57
2023/01/26 14:47:58;;;;;;;17.52;12.38;;;;;;;;;;5116607;28;20421;-57
2023/01/26 14:50:27;;;;;;;15.65;12.70;;;;;;;;;;5116817;28;20221;-58
2023/01/26 14:52:54;;;;;;;19.65;13.52;;;;;;;;;;5116858;28;20221;-57
2023/01/26 14:55:22;;;;;;;15.45;12.57;;;;;;;;;;5116803;28;20637;-57
2023/01/26 14:57:50;;;;;;;18.02;12.95;;;;;;;;;;5116837;28;20194;-57
2023/01/26 15:00:23;;;;;;;17.85;13.00;;;;;;;;;;5116544;28;20660;-57
2023/01/26 15:02:50;;;;;;;19.00;12.95;;;;;;;;;;5116673;28;20624;-57
2023/01/26 15:05:19;;;;;;;16.45;11.50;;;;;;;;;;5116362;28;20580;-58
2023/01/26 15:07:47;;;;;;;16.85;13.40;;;;;;;;;;5116863;28;20224;-57
2023/01/26 15:10:41;;;;;;;16.35;12.20;;;;;;;;;;5116425;28;20682;-57
2023/01/26 15:13:18;;;;;;;16.23;12.35;;;;;;;;;;5068522;28;20543;-57
2023/01/26 15:15:47;;;;;;;19.23;13.15;;;;;;;;;;5116341;28;20189;-57